AirNav   Everest Fuels
 
 1211 users online  

4FD7 Flanders Field Airport
Polk City, Florida, USA

GOING TO POLK CITY?


FAA INFORMATION EFFECTIVE 20 MAY 2021

Location

FAA Identifier: 4FD7
Lat/Long: 28-12-23.0490N 081-49-40.2820W
28-12.384150N 081-49.671367W
28.2064025,-81.8278561
(estimated)
Elevation: 131 ft. / 40 m (estimated)
Variation: 02W (1985)
From city: 1 mile N of POLK CITY, FL
Time zone: UTC -4 (UTC -5 during Standard Time)
Zip code: 33868

Airport Operations

Airport use: Private use. Permission required prior to landing
Activation date: 03/1988
Control tower: no
ARTCC: JACKSONVILLE CENTER
FSS: SAINT PETERSBURG FLIGHT SERVICE STATION
Attendance: CONTINUOUS
Wind indicator: yes
Segmented circle: yes

Airport Communications

WX ASOS at GIF (9 nm SE): 133.675 (863-956-2097)
WX AWOS-3 at BOW (16 nm S): 123.775 (863-533-9004)
WX AWOS-3PT at LAL (17 nm SW): 118.025 (863-834-2030)
WX AWOS-3PT at ZPH (17 nm W): 118.975 (813-780-0031)

Nearby radio navigation aids

VOR radial/distance  VOR name  Freq  Var
LALr036/16.5LAKELAND VORTAC116.0001E
ORLr232/32.9ORLANDO VORTAC112.2000E

Airport Services

Runway Information

Runway 18/36

Dimensions: 1800 x 135 ft. / 549 x 41 m
Surface: turf
RUNWAY 18  RUNWAY 36
Traffic pattern: rightleft

Airport Ownership and Management from official FAA records

Ownership: Privately-owned
Owner: CALVIN L. WYATT & SUSAN E. WYATT
6911 CONLEY DR
POLK CITY, FL 33868
Phone 863-984-3935
Manager: ROBERT L. NEWBERRY
804 LAKE HOLLINGSWORTH DR
LAKELAND, FL 33803
Phone 863-899-5216

Additional Remarks

FOR CD CTC ORLANDO APCH AT 407-852-7553.
(CONTACT TITLE) TERRY & GAYE MELTON, C/O MITCHLIND 6801 FLANDERS STATION DR. POLK CITY, FL 33868 863-984-2517 ROBERT L. NEWBERRY 804 LAKE HOLLINGSWORTH DR LAKELAND, FL 33803 863-899-5216 ROBERT & SANDRA LOCK 6925 CONLEY DR POLK CITY, FL 33868 863-984-4061 ANDREW J. SALTER & MARGARET MARY O'KEEF 6917 CONLEY DR POLK CITY, FL 33868 407-409-1268

Instrument Procedures

There are no published instrument procedures at 4FD7.

Some nearby airports with instrument procedures:

KGIF - Winter Haven Regional Airport (9 nm SE)
KBOW - Bartow Executive Airport (16 nm S)
KLAL - Lakeland Linder International Airport (17 nm SW)
KZPH - Zephyrhills Municipal Airport (17 nm W)
KISM - Kissimmee Gateway Airport (21 nm E)
 
Loc | Ops | Rwys | IFR | FBO | Links
Com | Nav | Svcs | Stats | Notes


 
Aerial photo
WARNING: Photo may not be current or correct
Aerial photo of 4FD7 (Flanders Field Airport)
Photo by Andy Smothers
Photo taken 20-Sep-2015
looking north.

Do you have a better or more recent aerial photo of Flanders Field Airport that you would like to share? If so, please send us your photo.

 
Airport distance calculator
Flying to Flanders Field Airport? Find the distance to fly.

From to 4FD7

Sunrise and sunset
Times for 14-Jun-2021
 Local
(UTC-4)
 Zulu
(UTC)
Morning civil twilight06:0410:04
Sunrise06:3110:31
Sunset20:2400:24
Evening civil twilight20:5100:51

Current date and time
Zulu (UTC)  14-Jun-2021 13:27:44
Local (UTC-4)  14-Jun-2021 09:27:44
 
METAR
KGIF 
9nm SE 
141253Z AUTO 22007KT 10SM FEW110 26/23 A2995 RMK AO2 RAB26E37 SLP141 P0000 T02560228
KBOW 
17nm S 
141250Z 22004KT 10SM SCT020 25/24 A2995
KZPH 
17nm W 
141315Z AUTO 20007KT 10SM SCT023 OVC100 25/23 A2996 RMK A02 T02510231
KLAL 
18nm SW 
141250Z 19004KT 10SM BKN110 24/22 A2995
TAF
KLAL 
18nm SW 
141124Z 1412/1512 23005KT P6SM VCSH SCT025 BKN100 TEMPO 1412/1416 3SM TSRA BKN025CB FM141600 24008KT P6SM VCTS SCT030CB BKN100 FM150300 21005KT P6SM VCTS SCT025CB BKN100
KISM 
21nm E 
141131Z 1412/1512 15004KT P6SM VCSH FEW030 BKN110 FM141400 23007KT P6SM VCSH SCT035 BKN100 FM141700 27010KT P6SM VCTS SCT045CB BKN070 OVC110 TEMPO 1417/1421 3SM TSRA BKN035CB FM142200 26006KT P6SM -RA VCTS SCT050CB BKN100 FM150300 22003KT P6SM VCSH FEW035 BKN110 FM150600 20007KT P6SM FEW035 BKN100
NOTAMs
Click for the latest NOTAMs
NOTAMs are issued by the DoD/FAA and will open in a separate window not controlled by AirNav.

 

 
 

Would you like to see your business listed on this page?

 If your business provides an interesting product or service to pilots, flight crews, aircraft, or users of the Flanders Field Airport, you should consider listing it here.  To start the listing process, click on the button below
 
Add a business
 

Other Pages about Flanders Field Airport

Update a link
 
Copyright © AirNav, LLC. All rights reserved. Privacy Policy  Contact